sensor_id;sensor_type;location;lat;lon;timestamp;temperature;humidity
5560;DHT22;2803;47.916;8.074;2023-08-06T00:02:12;17.20;99.90
5560;DHT22;2803;47.916;8.074;2023-08-06T00:04:38;17.20;99.90
5560;DHT22;2803;47.916;8.074;2023-08-06T00:07:05;17.40;99.90
5560;DHT22;2803;47.916;8.074;2023-08-06T00:09:32;17.60;99.90
5560;DHT22;2803;47.916;8.074;2023-08-06T00:11:59;17.30;99.90
5560;DHT22;2803;47.916;8.074;2023-08-06T00:14:26;17.70;99.90
5560;DHT22;2803;47.916;8.074;2023-08-06T00:16:53;17.80;99.90
5560;DHT22;2803;47.916;8.074;2023-08-06T00:19:19;17.60;99.90
5560;DHT22;2803;47.916;8.074;2023-08-06T00:21:46;17.60;99.90
5560;DHT22;2803;47.916;8.074;2023-08-06T00:24:12;17.80;99.90
5560;DHT22;2803;47.916;8.074;2023-08-06T00:26:40;17.70;99.90
5560;DHT22;2803;47.916;8.074;2023-08-06T00:29:08;17.40;99.90
5560;DHT22;2803;47.916;8.074;2023-08-06T00:31:34;17.20;99.90
5560;DHT22;2803;47.916;8.074;2023-08-06T00:34:01;17.30;99.90
5560;DHT22;2803;47.916;8.074;2023-08-06T00:36:27;17.30;99.90
5560;DHT22;2803;47.916;8.074;2023-08-06T00:38:54;16.90;99.90
5560;DHT22;2803;47.916;8.074;2023-08-06T00:41:22;17.10;99.90
5560;DHT22;2803;47.916;8.074;2023-08-06T00:43:48;17.10;99.90
5560;DHT22;2803;47.916;8.074;2023-08-06T00:46:15;17.20;99.90
5560;DHT22;2803;47.916;8.074;2023-08-06T00:48:44;17.00;99.90
5560;DHT22;2803;47.916;8.074;2023-08-06T00:51:12;17.00;99.90
5560;DHT22;2803;47.916;8.074;2023-08-06T00:53:40;17.30;99.90
5560;DHT22;2803;47.916;8.074;2023-08-06T00:56:08;17.50;99.90
5560;DHT22;2803;47.916;8.074;2023-08-06T00:58:36;17.60;99.90
5560;DHT22;2803;47.916;8.074;2023-08-06T01:01:03;17.30;99.90
5560;DHT22;2803;47.916;8.074;2023-08-06T01:03:32;17.30;99.90
5560;DHT22;2803;47.916;8.074;2023-08-06T01:05:59;17.40;99.90
5560;DHT22;2803;47.916;8.074;2023-08-06T01:08:32;17.80;99.90
5560;DHT22;2803;47.916;8.074;2023-08-06T01:11:14;17.90;99.90
5560;DHT22;2803;47.916;8.074;2023-08-06T01:13:46;17.40;99.90
5560;DHT22;2803;47.916;8.074;2023-08-06T01:16:16;17.40;99.90
5560;DHT22;2803;47.916;8.074;2023-08-06T01:18:46;17.10;99.90
5560;DHT22;2803;47.916;8.074;2023-08-06T01:21:16;17.40;99.90
5560;DHT22;2803;47.916;8.074;2023-08-06T01:23:43;17.70;99.90
5560;DHT22;2803;47.916;8.074;2023-08-06T01:26:14;17.70;99.90
5560;DHT22;2803;47.916;8.074;2023-08-06T01:28:47;17.50;99.90
5560;DHT22;2803;47.916;8.074;2023-08-06T01:31:20;16.80;99.90
5560;DHT22;2803;47.916;8.074;2023-08-06T01:33:48;16.80;99.90
5560;DHT22;2803;47.916;8.074;2023-08-06T01:36:17;17.30;99.90
5560;DHT22;2803;47.916;8.074;2023-08-06T01:38:45;17.50;99.90
5560;DHT22;2803;47.916;8.074;2023-08-06T01:41:12;17.60;99.90
5560;DHT22;2803;47.916;8.074;2023-08-06T01:43:38;17.70;99.90
5560;DHT22;2803;47.916;8.074;2023-08-06T01:46:05;17.20;99.90
5560;DHT22;2803;47.916;8.074;2023-08-06T01:48:32;16.40;99.90
5560;DHT22;2803;47.916;8.074;2023-08-06T01:50:58;16.60;99.90
5560;DHT22;2803;47.916;8.074;2023-08-06T01:53:26;16.60;99.90
5560;DHT22;2803;47.916;8.074;2023-08-06T01:55:53;16.70;99.90
5560;DHT22;2803;47.916;8.074;2023-08-06T01:58:20;16.80;99.90
5560;DHT22;2803;47.916;8.074;2023-08-06T02:00:46;17.30;99.90
5560;DHT22;2803;47.916;8.074;2023-08-06T02:03:13;17.50;99.90
5560;DHT22;2803;47.916;8.074;2023-08-06T02:05:40;17.60;99.90
5560;DHT22;2803;47.916;8.074;2023-08-06T02:08:07;17.80;99.90
5560;DHT22;2803;47.916;8.074;2023-08-06T02:10:34;17.20;99.90
5560;DHT22;2803;47.916;8.074;2023-08-06T02:13:01;17.40;99.90
5560;DHT22;2803;47.916;8.074;2023-08-06T02:15:28;17.50;99.90
5560;DHT22;2803;47.916;8.074;2023-08-06T02:17:54;17.50;99.90
5560;DHT22;2803;47.916;8.074;2023-08-06T02:20:21;17.70;99.90
5560;DHT22;2803;47.916;8.074;2023-08-06T02:22:48;17.90;99.90
5560;DHT22;2803;47.916;8.074;2023-08-06T02:25:15;17.70;99.90
5560;DHT22;2803;47.916;8.074;2023-08-06T02:27:43;17.40;99.90
5560;DHT22;2803;47.916;8.074;2023-08-06T02:30:09;17.50;99.90
5560;DHT22;2803;47.916;8.074;2023-08-06T02:32:36;17.30;99.90
5560;DHT22;2803;47.916;8.074;2023-08-06T02:35:03;16.90;99.90
5560;DHT22;2803;47.916;8.074;2023-08-06T02:37:30;17.20;99.90
5560;DHT22;2803;47.916;8.074;2023-08-06T02:39:56;17.10;99.90
5560;DHT22;2803;47.916;8.074;2023-08-06T02:42:23;16.60;99.90
5560;DHT22;2803;47.916;8.074;2023-08-06T02:44:52;15.80;99.90
5560;DHT22;2803;47.916;8.074;2023-08-06T02:47:20;15.70;99.90
5560;DHT22;2803;47.916;8.074;2023-08-06T02:49:47;15.70;99.90
5560;DHT22;2803;47.916;8.074;2023-08-06T02:52:13;15.70;99.90
5560;DHT22;2803;47.916;8.074;2023-08-06T02:54:40;15.90;99.90
5560;DHT22;2803;47.916;8.074;2023-08-06T02:57:07;15.80;99.90
5560;DHT22;2803;47.916;8.074;2023-08-06T02:59:33;15.70;99.90
5560;DHT22;2803;47.916;8.074;2023-08-06T03:02:01;15.80;99.90
5560;DHT22;2803;47.916;8.074;2023-08-06T03:04:28;15.70;99.90
5560;DHT22;2803;47.916;8.074;2023-08-06T03:06:55;16.10;99.90
5560;DHT22;2803;47.916;8.074;2023-08-06T03:09:21;15.80;99.90
5560;DHT22;2803;47.916;8.074;2023-08-06T03:11:48;15.70;99.90
5560;DHT22;2803;47.916;8.074;2023-08-06T03:14:15;15.20;99.90
5560;DHT22;2803;47.916;8.074;2023-08-06T03:16:41;15.30;99.90
5560;DHT22;2803;47.916;8.074;2023-08-06T03:19:09;15.30;99.90
5560;DHT22;2803;47.916;8.074;2023-08-06T03:21:36;15.20;99.90
5560;DHT22;2803;47.916;8.074;2023-08-06T03:24:03;15.00;99.90
5560;DHT22;2803;47.916;8.074;2023-08-06T03:26:29;15.10;99.90
5560;DHT22;2803;47.916;8.074;2023-08-06T03:28:56;15.00;99.90
5560;DHT22;2803;47.916;8.074;2023-08-06T03:31:22;15.40;99.90
5560;DHT22;2803;47.916;8.074;2023-08-06T03:33:49;15.20;99.90
5560;DHT22;2803;47.916;8.074;2023-08-06T03:36:17;14.90;99.90
5560;DHT22;2803;47.916;8.074;2023-08-06T03:38:44;14.90;99.90
5560;DHT22;2803;47.916;8.074;2023-08-06T03:41:10;14.90;99.90
5560;DHT22;2803;47.916;8.074;2023-08-06T03:43:37;15.00;99.90
5560;DHT22;2803;47.916;8.074;2023-08-06T03:46:04;14.80;99.90
5560;DHT22;2803;47.916;8.074;2023-08-06T03:48:30;14.70;99.90
5560;DHT22;2803;47.916;8.074;2023-08-06T03:50:57;14.80;99.90
5560;DHT22;2803;47.916;8.074;2023-08-06T03:53:27;14.40;99.90
5560;DHT22;2803;47.916;8.074;2023-08-06T03:55:55;14.50;99.90
5560;DHT22;2803;47.916;8.074;2023-08-06T03:58:25;14.90;99.90
5560;DHT22;2803;47.916;8.074;2023-08-06T04:00:58;15.00;99.90
5560;DHT22;2803;47.916;8.074;2023-08-06T04:03:24;14.80;99.90
5560;DHT22;2803;47.916;8.074;2023-08-06T04:05:51;14.70;99.90
5560;DHT22;2803;47.916;8.074;2023-08-06T04:08:18;14.40;99.90
5560;DHT22;2803;47.916;8.074;2023-08-06T04:10:49;14.40;99.90
5560;DHT22;2803;47.916;8.074;2023-08-06T04:13:15;14.10;99.90
5560;DHT22;2803;47.916;8.074;2023-08-06T04:15:42;14.40;99.90
5560;DHT22;2803;47.916;8.074;2023-08-06T04:18:09;14.20;99.90
5560;DHT22;2803;47.916;8.074;2023-08-06T04:20:42;13.90;99.90
5560;DHT22;2803;47.916;8.074;2023-08-06T04:23:09;14.30;99.90
5560;DHT22;2803;47.916;8.074;2023-08-06T04:25:35;14.20;99.90
5560;DHT22;2803;47.916;8.074;2023-08-06T04:28:03;14.40;99.90
5560;DHT22;2803;47.916;8.074;2023-08-06T04:30:30;14.60;99.90
5560;DHT22;2803;47.916;8.074;2023-08-06T04:32:57;14.40;99.90
5560;DHT22;2803;47.916;8.074;2023-08-06T04:35:24;14.10;99.90
5560;DHT22;2803;47.916;8.074;2023-08-06T04:37:51;13.90;99.90
5560;DHT22;2803;47.916;8.074;2023-08-06T04:40:17;13.70;99.90
5560;DHT22;2803;47.916;8.074;2023-08-06T04:42:44;13.90;99.90
5560;DHT22;2803;47.916;8.074;2023-08-06T04:45:12;14.00;99.90
5560;DHT22;2803;47.916;8.074;2023-08-06T04:47:38;14.50;99.90
5560;DHT22;2803;47.916;8.074;2023-08-06T04:50:06;14.40;99.90
5560;DHT22;2803;47.916;8.074;2023-08-06T04:52:32;14.20;99.90
5560;DHT22;2803;47.916;8.074;2023-08-06T04:54:59;14.40;99.90
5560;DHT22;2803;47.916;8.074;2023-08-06T04:57:25;14.50;99.90
5560;DHT22;2803;47.916;8.074;2023-08-06T04:59:52;15.10;99.90
5560;DHT22;2803;47.916;8.074;2023-08-06T05:02:20;14.90;99.90
5560;DHT22;2803;47.916;8.074;2023-08-06T05:04:47;15.00;99.90
5560;DHT22;2803;47.916;8.074;2023-08-06T05:07:13;14.90;99.90
5560;DHT22;2803;47.916;8.074;2023-08-06T05:09:40;14.90;99.90
5560;DHT22;2803;47.916;8.074;2023-08-06T05:12:07;15.10;99.90
5560;DHT22;2803;47.916;8.074;2023-08-06T05:14:34;15.10;99.90
5560;DHT22;2803;47.916;8.074;2023-08-06T05:17:00;15.20;99.90
5560;DHT22;2803;47.916;8.074;2023-08-06T05:19:31;14.70;99.90
5560;DHT22;2803;47.916;8.074;2023-08-06T05:21:57;14.30;99.90
5560;DHT22;2803;47.916;8.074;2023-08-06T05:24:24;14.70;99.90
5560;DHT22;2803;47.916;8.074;2023-08-06T05:26:51;15.00;99.90
5560;DHT22;2803;47.916;8.074;2023-08-06T05:29:18;14.60;99.90
5560;DHT22;2803;47.916;8.074;2023-08-06T05:31:45;14.50;99.90
5560;DHT22;2803;47.916;8.074;2023-08-06T05:34:11;14.20;99.90
5560;DHT22;2803;47.916;8.074;2023-08-06T05:36:39;14.60;99.90
5560;DHT22;2803;47.916;8.074;2023-08-06T05:39:06;14.80;99.90
5560;DHT22;2803;47.916;8.074;2023-08-06T05:41:33;14.70;99.90
5560;DHT22;2803;47.916;8.074;2023-08-06T05:43:59;14.70;99.90
5560;DHT22;2803;47.916;8.074;2023-08-06T05:46:26;15.10;99.90
5560;DHT22;2803;47.916;8.074;2023-08-06T05:48:53;15.30;99.90
5560;DHT22;2803;47.916;8.074;2023-08-06T05:51:19;15.20;99.90
5560;DHT22;2803;47.916;8.074;2023-08-06T05:53:47;15.10;99.90
5560;DHT22;2803;47.916;8.074;2023-08-06T05:56:16;15.30;99.90
5560;DHT22;2803;47.916;8.074;2023-08-06T05:58:42;15.50;99.90
5560;DHT22;2803;47.916;8.074;2023-08-06T06:01:09;15.70;99.90
5560;DHT22;2803;47.916;8.074;2023-08-06T06:03:35;15.40;99.90
5560;DHT22;2803;47.916;8.074;2023-08-06T06:06:02;15.00;99.90
5560;DHT22;2803;47.916;8.074;2023-08-06T06:08:29;15.00;99.90
5560;DHT22;2803;47.916;8.074;2023-08-06T06:10:59;15.00;99.90
5560;DHT22;2803;47.916;8.074;2023-08-06T06:13:26;15.30;99.90
5560;DHT22;2803;47.916;8.074;2023-08-06T06:15:54;14.90;99.90
5560;DHT22;2803;47.916;8.074;2023-08-06T06:18:21;14.80;99.90
5560;DHT22;2803;47.916;8.074;2023-08-06T06:20:48;15.20;99.90
5560;DHT22;2803;47.916;8.074;2023-08-06T06:23:15;15.10;99.90
5560;DHT22;2803;47.916;8.074;2023-08-06T06:25:42;15.40;99.90
5560;DHT22;2803;47.916;8.074;2023-08-06T06:28:11;15.20;99.90
5560;DHT22;2803;47.916;8.074;2023-08-06T06:30:37;14.70;99.90
5560;DHT22;2803;47.916;8.074;2023-08-06T06:33:04;14.40;99.90
5560;DHT22;2803;47.916;8.074;2023-08-06T06:35:31;14.10;99.90
5560;DHT22;2803;47.916;8.074;2023-08-06T06:37:57;13.80;99.90
5560;DHT22;2803;47.916;8.074;2023-08-06T06:40:24;14.40;99.90
5560;DHT22;2803;47.916;8.074;2023-08-06T06:42:51;14.30;99.90
5560;DHT22;2803;47.916;8.074;2023-08-06T06:45:18;14.00;99.90
5560;DHT22;2803;47.916;8.074;2023-08-06T06:47:45;14.30;99.90
5560;DHT22;2803;47.916;8.074;2023-08-06T06:50:12;14.40;99.90
5560;DHT22;2803;47.916;8.074;2023-08-06T06:52:38;14.30;99.90
5560;DHT22;2803;47.916;8.074;2023-08-06T06:55:05;14.60;99.90
5560;DHT22;2803;47.916;8.074;2023-08-06T06:57:32;14.80;99.90
5560;DHT22;2803;47.916;8.074;2023-08-06T06:59:59;14.60;99.90
5560;DHT22;2803;47.916;8.074;2023-08-06T07:02:27;14.60;99.90
5560;DHT22;2803;47.916;8.074;2023-08-06T07:04:53;14.10;99.90
5560;DHT22;2803;47.916;8.074;2023-08-06T07:07:20;14.00;99.90
5560;DHT22;2803;47.916;8.074;2023-08-06T07:09:46;14.40;99.90
5560;DHT22;2803;47.916;8.074;2023-08-06T07:12:13;14.40;99.90
5560;DHT22;2803;47.916;8.074;2023-08-06T07:14:40;14.50;99.90
5560;DHT22;2803;47.916;8.074;2023-08-06T07:17:06;14.80;99.90
5560;DHT22;2803;47.916;8.074;2023-08-06T07:19:34;14.60;99.90
5560;DHT22;2803;47.916;8.074;2023-08-06T07:22:01;14.60;99.90
5560;DHT22;2803;47.916;8.074;2023-08-06T07:24:28;14.80;99.90
5560;DHT22;2803;47.916;8.074;2023-08-06T07:26:54;14.00;99.90
5560;DHT22;2803;47.916;8.074;2023-08-06T07:29:21;13.90;99.90
5560;DHT22;2803;47.916;8.074;2023-08-06T07:31:48;14.10;99.90
5560;DHT22;2803;47.916;8.074;2023-08-06T07:34:15;14.50;99.90
5560;DHT22;2803;47.916;8.074;2023-08-06T07:36:45;14.10;99.90
5560;DHT22;2803;47.916;8.074;2023-08-06T07:39:12;14.00;99.90
5560;DHT22;2803;47.916;8.074;2023-08-06T07:41:38;13.90;99.90
5560;DHT22;2803;47.916;8.074;2023-08-06T07:44:07;14.30;99.90
5560;DHT22;2803;47.916;8.074;2023-08-06T07:46:34;14.60;99.90
5560;DHT22;2803;47.916;8.074;2023-08-06T07:49:01;14.20;99.90
5560;DHT22;2803;47.916;8.074;2023-08-06T07:51:28;14.10;99.90
5560;DHT22;2803;47.916;8.074;2023-08-06T07:53:56;13.80;99.90
5560;DHT22;2803;47.916;8.074;2023-08-06T07:56:22;13.50;99.90
5560;DHT22;2803;47.916;8.074;2023-08-06T07:58:49;14.00;99.90
5560;DHT22;2803;47.916;8.074;2023-08-06T08:01:16;13.60;99.90
5560;DHT22;2803;47.916;8.074;2023-08-06T08:03:43;13.90;99.90
5560;DHT22;2803;47.916;8.074;2023-08-06T08:06:09;13.90;99.90
5560;DHT22;2803;47.916;8.074;2023-08-06T08:08:36;14.60;99.90
5560;DHT22;2803;47.916;8.074;2023-08-06T08:11:05;14.30;99.90
5560;DHT22;2803;47.916;8.074;2023-08-06T08:13:32;14.20;99.90
5560;DHT22;2803;47.916;8.074;2023-08-06T08:16:00;14.50;99.90
5560;DHT22;2803;47.916;8.074;2023-08-06T08:18:27;14.50;99.90
5560;DHT22;2803;47.916;8.074;2023-08-06T08:20:55;14.30;99.90
5560;DHT22;2803;47.916;8.074;2023-08-06T08:23:22;14.70;99.90
5560;DHT22;2803;47.916;8.074;2023-08-06T08:25:48;14.90;99.90
5560;DHT22;2803;47.916;8.074;2023-08-06T08:28:17;14.50;99.90
5560;DHT22;2803;47.916;8.074;2023-08-06T08:30:43;14.30;99.90
5560;DHT22;2803;47.916;8.074;2023-08-06T08:33:10;14.50;99.90
5560;DHT22;2803;47.916;8.074;2023-08-06T08:35:37;14.10;99.90
5560;DHT22;2803;47.916;8.074;2023-08-06T08:38:03;14.20;99.90
5560;DHT22;2803;47.916;8.074;2023-08-06T08:40:33;14.50;99.90
5560;DHT22;2803;47.916;8.074;2023-08-06T08:43:02;14.90;99.90
5560;DHT22;2803;47.916;8.074;2023-08-06T08:45:31;14.60;99.90
5560;DHT22;2803;47.916;8.074;2023-08-06T08:48:00;14.20;99.90
5560;DHT22;2803;47.916;8.074;2023-08-06T08:50:27;14.60;99.90
5560;DHT22;2803;47.916;8.074;2023-08-06T08:52:56;14.70;99.90
5560;DHT22;2803;47.916;8.074;2023-08-06T08:55:23;14.20;99.90
5560;DHT22;2803;47.916;8.074;2023-08-06T08:57:51;14.50;99.90
5560;DHT22;2803;47.916;8.074;2023-08-06T09:00:17;14.10;99.90
5560;DHT22;2803;47.916;8.074;2023-08-06T09:02:45;14.10;99.90
5560;DHT22;2803;47.916;8.074;2023-08-06T09:05:13;14.80;99.90
5560;DHT22;2803;47.916;8.074;2023-08-06T09:07:42;15.10;99.90
5560;DHT22;2803;47.916;8.074;2023-08-06T09:10:11;15.00;99.90
5560;DHT22;2803;47.916;8.074;2023-08-06T09:12:39;14.70;99.90
5560;DHT22;2803;47.916;8.074;2023-08-06T09:15:06;14.50;99.90
5560;DHT22;2803;47.916;8.074;2023-08-06T09:17:33;14.40;99.90
5560;DHT22;2803;47.916;8.074;2023-08-06T09:20:10;14.50;99.90
5560;DHT22;2803;47.916;8.074;2023-08-06T09:22:37;14.80;99.90
5560;DHT22;2803;47.916;8.074;2023-08-06T09:25:04;15.10;99.90
5560;DHT22;2803;47.916;8.074;2023-08-06T09:27:35;15.10;99.90
5560;DHT22;2803;47.916;8.074;2023-08-06T09:30:03;14.80;99.90
5560;DHT22;2803;47.916;8.074;2023-08-06T09:32:45;14.60;99.90
5560;DHT22;2803;47.916;8.074;2023-08-06T09:35:16;14.40;99.90
5560;DHT22;2803;47.916;8.074;2023-08-06T09:37:43;14.10;99.90
5560;DHT22;2803;47.916;8.074;2023-08-06T09:40:26;14.20;99.90
5560;DHT22;2803;47.916;8.074;2023-08-06T09:42:54;14.30;99.90
5560;DHT22;2803;47.916;8.074;2023-08-06T09:45:22;14.50;99.90
5560;DHT22;2803;47.916;8.074;2023-08-06T09:47:49;14.50;99.90
5560;DHT22;2803;47.916;8.074;2023-08-06T09:50:18;14.40;99.90
5560;DHT22;2803;47.916;8.074;2023-08-06T09:52:46;14.40;99.90
5560;DHT22;2803;47.916;8.074;2023-08-06T09:55:14;14.60;99.90
5560;DHT22;2803;47.916;8.074;2023-08-06T09:57:41;14.40;99.90
5560;DHT22;2803;47.916;8.074;2023-08-06T10:00:09;14.60;99.90
5560;DHT22;2803;47.916;8.074;2023-08-06T10:02:38;14.60;99.90
5560;DHT22;2803;47.916;8.074;2023-08-06T10:05:05;14.60;99.90
5560;DHT22;2803;47.916;8.074;2023-08-06T10:07:34;14.20;99.90
5560;DHT22;2803;47.916;8.074;2023-08-06T10:10:03;14.20;99.90
5560;DHT22;2803;47.916;8.074;2023-08-06T10:12:32;14.50;99.90
5560;DHT22;2803;47.916;8.074;2023-08-06T10:15:02;14.60;99.90
5560;DHT22;2803;47.916;8.074;2023-08-06T10:17:32;14.60;99.90
5560;DHT22;2803;47.916;8.074;2023-08-06T10:19:59;14.50;99.90
5560;DHT22;2803;47.916;8.074;2023-08-06T10:22:26;14.40;99.90
5560;DHT22;2803;47.916;8.074;2023-08-06T10:24:55;15.00;99.90
5560;DHT22;2803;47.916;8.074;2023-08-06T10:27:27;15.00;99.90
5560;DHT22;2803;47.916;8.074;2023-08-06T10:29:54;15.20;99.90
5560;DHT22;2803;47.916;8.074;2023-08-06T10:32:21;15.10;99.90
5560;DHT22;2803;47.916;8.074;2023-08-06T10:34:56;15.10;99.90
5560;DHT22;2803;47.916;8.074;2023-08-06T10:37:23;15.00;99.90
5560;DHT22;2803;47.916;8.074;2023-08-06T10:39:51;15.00;99.90
5560;DHT22;2803;47.916;8.074;2023-08-06T10:42:27;14.50;99.90
5560;DHT22;2803;47.916;8.074;2023-08-06T10:45:10;14.90;99.90
5560;DHT22;2803;47.916;8.074;2023-08-06T10:47:38;14.80;99.90
5560;DHT22;2803;47.916;8.074;2023-08-06T10:50:06;14.90;99.90
5560;DHT22;2803;47.916;8.074;2023-08-06T10:52:33;15.10;99.90
5560;DHT22;2803;47.916;8.074;2023-08-06T10:55:00;15.30;99.90
5560;DHT22;2803;47.916;8.074;2023-08-06T10:57:28;14.90;99.90
5560;DHT22;2803;47.916;8.074;2023-08-06T10:59:55;15.20;99.90
5560;DHT22;2803;47.916;8.074;2023-08-06T11:02:21;15.30;99.90
5560;DHT22;2803;47.916;8.074;2023-08-06T11:04:48;15.20;99.90
5560;DHT22;2803;47.916;8.074;2023-08-06T11:07:15;15.30;99.90
5560;DHT22;2803;47.916;8.074;2023-08-06T11:09:42;14.90;99.90
5560;DHT22;2803;47.916;8.074;2023-08-06T11:12:09;15.10;99.90
5560;DHT22;2803;47.916;8.074;2023-08-06T11:14:37;14.90;99.90
5560;DHT22;2803;47.916;8.074;2023-08-06T11:17:05;15.30;99.90
5560;DHT22;2803;47.916;8.074;2023-08-06T11:19:31;15.00;99.90
5560;DHT22;2803;47.916;8.074;2023-08-06T11:21:59;15.30;99.90
5560;DHT22;2803;47.916;8.074;2023-08-06T11:24:27;15.40;99.90
5560;DHT22;2803;47.916;8.074;2023-08-06T11:26:54;15.30;99.90
5560;DHT22;2803;47.916;8.074;2023-08-06T11:29:20;15.10;99.90
5560;DHT22;2803;47.916;8.074;2023-08-06T11:31:49;15.00;99.90
5560;DHT22;2803;47.916;8.074;2023-08-06T11:34:16;15.30;99.90
5560;DHT22;2803;47.916;8.074;2023-08-06T11:36:43;15.10;99.90
5560;DHT22;2803;47.916;8.074;2023-08-06T11:39:09;15.50;99.90
5560;DHT22;2803;47.916;8.074;2023-08-06T11:41:36;15.30;99.90
5560;DHT22;2803;47.916;8.074;2023-08-06T11:44:05;15.40;99.90
5560;DHT22;2803;47.916;8.074;2023-08-06T11:46:51;15.20;99.90
5560;DHT22;2803;47.916;8.074;2023-08-06T11:49:18;14.70;99.90
5560;DHT22;2803;47.916;8.074;2023-08-06T11:51:47;14.70;99.90
5560;DHT22;2803;47.916;8.074;2023-08-06T11:54:13;14.40;99.90
5560;DHT22;2803;47.916;8.074;2023-08-06T11:56:40;14.50;99.90
5560;DHT22;2803;47.916;8.074;2023-08-06T11:59:08;14.30;99.90
5560;DHT22;2803;47.916;8.074;2023-08-06T12:01:35;14.20;99.90
5560;DHT22;2803;47.916;8.074;2023-08-06T12:04:04;14.50;99.90
5560;DHT22;2803;47.916;8.074;2023-08-06T12:06:41;14.70;99.90
5560;DHT22;2803;47.916;8.074;2023-08-06T12:09:08;14.80;99.90
5560;DHT22;2803;47.916;8.074;2023-08-06T12:11:35;14.40;99.90
5560;DHT22;2803;47.916;8.074;2023-08-06T12:14:02;14.30;99.90
5560;DHT22;2803;47.916;8.074;2023-08-06T12:16:28;14.20;99.90
5560;DHT22;2803;47.916;8.074;2023-08-06T12:18:55;14.00;99.90
5560;DHT22;2803;47.916;8.074;2023-08-06T12:21:23;14.70;99.90
5560;DHT22;2803;47.916;8.074;2023-08-06T12:23:50;14.60;99.90
5560;DHT22;2803;47.916;8.074;2023-08-06T12:26:16;14.70;99.90
5560;DHT22;2803;47.916;8.074;2023-08-06T12:28:43;14.70;99.90
5560;DHT22;2803;47.916;8.074;2023-08-06T12:31:10;14.60;99.90
5560;DHT22;2803;47.916;8.074;2023-08-06T12:33:36;14.30;99.90
5560;DHT22;2803;47.916;8.074;2023-08-06T12:36:03;14.40;99.90
5560;DHT22;2803;47.916;8.074;2023-08-06T12:38:32;14.50;99.90
5560;DHT22;2803;47.916;8.074;2023-08-06T12:41:00;14.30;99.90
5560;DHT22;2803;47.916;8.074;2023-08-06T12:43:27;14.00;99.90
5560;DHT22;2803;47.916;8.074;2023-08-06T12:45:54;14.30;99.90
5560;DHT22;2803;47.916;8.074;2023-08-06T12:48:20;14.20;99.90
5560;DHT22;2803;47.916;8.074;2023-08-06T12:50:47;14.50;99.90
5560;DHT22;2803;47.916;8.074;2023-08-06T12:53:14;14.40;99.90
5560;DHT22;2803;47.916;8.074;2023-08-06T12:55:42;14.30;99.90
5560;DHT22;2803;47.916;8.074;2023-08-06T12:58:09;14.30;99.90
5560;DHT22;2803;47.916;8.074;2023-08-06T13:00:36;14.60;99.90
5560;DHT22;2803;47.916;8.074;2023-08-06T13:03:03;14.80;99.90
5560;DHT22;2803;47.916;8.074;2023-08-06T13:05:29;15.10;99.90
5560;DHT22;2803;47.916;8.074;2023-08-06T13:07:56;15.60;99.90
5560;DHT22;2803;47.916;8.074;2023-08-06T13:10:23;15.20;99.90
5560;DHT22;2803;47.916;8.074;2023-08-06T13:12:51;14.80;99.90
5560;DHT22;2803;47.916;8.074;2023-08-06T13:15:18;14.30;99.90
5560;DHT22;2803;47.916;8.074;2023-08-06T13:17:46;14.50;99.90
5560;DHT22;2803;47.916;8.074;2023-08-06T13:20:13;14.30;99.90
5560;DHT22;2803;47.916;8.074;2023-08-06T13:22:39;14.20;99.90
5560;DHT22;2803;47.916;8.074;2023-08-06T13:25:06;14.00;99.90
5560;DHT22;2803;47.916;8.074;2023-08-06T13:27:33;13.80;99.90
5560;DHT22;2803;47.916;8.074;2023-08-06T13:30:01;13.80;99.90
5560;DHT22;2803;47.916;8.074;2023-08-06T13:32:28;13.90;99.90
5560;DHT22;2803;47.916;8.074;2023-08-06T13:34:55;13.80;99.90
5560;DHT22;2803;47.916;8.074;2023-08-06T13:37:21;13.80;99.90
5560;DHT22;2803;47.916;8.074;2023-08-06T13:39:48;13.90;99.90
5560;DHT22;2803;47.916;8.074;2023-08-06T13:42:14;14.30;99.90
5560;DHT22;2803;47.916;8.074;2023-08-06T13:44:42;14.50;99.90
5560;DHT22;2803;47.916;8.074;2023-08-06T13:47:10;14.60;99.90
5560;DHT22;2803;47.916;8.074;2023-08-06T13:49:37;14.60;99.90
5560;DHT22;2803;47.916;8.074;2023-08-06T13:52:04;14.20;99.90
5560;DHT22;2803;47.916;8.074;2023-08-06T13:54:31;14.00;99.90
5560;DHT22;2803;47.916;8.074;2023-08-06T13:56:57;13.90;99.90
5560;DHT22;2803;47.916;8.074;2023-08-06T13:59:24;14.00;99.90
5560;DHT22;2803;47.916;8.074;2023-08-06T14:01:50;13.80;99.90
5560;DHT22;2803;47.916;8.074;2023-08-06T14:04:20;14.00;99.90
5560;DHT22;2803;47.916;8.074;2023-08-06T14:06:47;14.20;99.90
5560;DHT22;2803;47.916;8.074;2023-08-06T14:09:14;14.70;99.90
5560;DHT22;2803;47.916;8.074;2023-08-06T14:11:43;14.80;99.90
5560;DHT22;2803;47.916;8.074;2023-08-06T14:14:11;14.70;99.90
5560;DHT22;2803;47.916;8.074;2023-08-06T14:16:37;14.60;99.90
5560;DHT22;2803;47.916;8.074;2023-08-06T14:19:04;14.60;99.90
5560;DHT22;2803;47.916;8.074;2023-08-06T14:21:32;14.40;99.90
5560;DHT22;2803;47.916;8.074;2023-08-06T14:23:59;14.30;99.90
5560;DHT22;2803;47.916;8.074;2023-08-06T14:26:25;14.30;99.90
5560;DHT22;2803;47.916;8.074;2023-08-06T14:28:52;14.10;99.90
5560;DHT22;2803;47.916;8.074;2023-08-06T14:31:20;14.30;99.90
5560;DHT22;2803;47.916;8.074;2023-08-06T14:33:47;14.70;99.90
5560;DHT22;2803;47.916;8.074;2023-08-06T14:36:13;14.80;99.90
5560;DHT22;2803;47.916;8.074;2023-08-06T14:38:41;15.00;99.90
5560;DHT22;2803;47.916;8.074;2023-08-06T14:41:08;14.80;99.90
5560;DHT22;2803;47.916;8.074;2023-08-06T14:43:35;14.80;99.90
5560;DHT22;2803;47.916;8.074;2023-08-06T14:46:01;14.60;99.90
5560;DHT22;2803;47.916;8.074;2023-08-06T14:48:28;14.80;99.90
5560;DHT22;2803;47.916;8.074;2023-08-06T14:50:55;15.10;99.90
5560;DHT22;2803;47.916;8.074;2023-08-06T14:53:22;14.60;99.90
5560;DHT22;2803;47.916;8.074;2023-08-06T14:55:50;14.10;99.90
5560;DHT22;2803;47.916;8.074;2023-08-06T14:58:16;14.50;99.90
5560;DHT22;2803;47.916;8.074;2023-08-06T15:00:44;14.10;99.90
5560;DHT22;2803;47.916;8.074;2023-08-06T15:03:11;14.10;99.90
5560;DHT22;2803;47.916;8.074;2023-08-06T15:05:37;13.90;99.90
5560;DHT22;2803;47.916;8.074;2023-08-06T15:08:05;13.90;99.90
5560;DHT22;2803;47.916;8.074;2023-08-06T15:10:32;14.30;99.90
5560;DHT22;2803;47.916;8.074;2023-08-06T15:13:01;14.60;99.90
5560;DHT22;2803;47.916;8.074;2023-08-06T15:15:28;14.70;99.90
5560;DHT22;2803;47.916;8.074;2023-08-06T15:17:55;14.90;99.90
5560;DHT22;2803;47.916;8.074;2023-08-06T15:20:22;15.10;99.90
5560;DHT22;2803;47.916;8.074;2023-08-06T15:22:49;15.20;99.90
5560;DHT22;2803;47.916;8.074;2023-08-06T15:25:16;15.10;99.90
5560;DHT22;2803;47.916;8.074;2023-08-06T15:27:43;15.10;99.90
5560;DHT22;2803;47.916;8.074;2023-08-06T15:30:11;15.30;99.90
5560;DHT22;2803;47.916;8.074;2023-08-06T15:32:37;15.10;99.90
5560;DHT22;2803;47.916;8.074;2023-08-06T15:35:07;14.80;99.90
5560;DHT22;2803;47.916;8.074;2023-08-06T15:37:34;15.00;99.90
5560;DHT22;2803;47.916;8.074;2023-08-06T15:40:01;14.90;99.90
5560;DHT22;2803;47.916;8.074;2023-08-06T15:42:27;15.20;99.90
5560;DHT22;2803;47.916;8.074;2023-08-06T15:44:54;15.10;99.90
5560;DHT22;2803;47.916;8.074;2023-08-06T15:47:22;14.60;99.90
5560;DHT22;2803;47.916;8.074;2023-08-06T15:49:48;14.30;99.90
5560;DHT22;2803;47.916;8.074;2023-08-06T15:52:15;14.30;99.90
5560;DHT22;2803;47.916;8.074;2023-08-06T15:54:42;14.60;99.90
5560;DHT22;2803;47.916;8.074;2023-08-06T15:57:09;14.50;99.90
5560;DHT22;2803;47.916;8.074;2023-08-06T15:59:36;14.70;99.90
5560;DHT22;2803;47.916;8.074;2023-08-06T16:02:03;14.80;99.90
5560;DHT22;2803;47.916;8.074;2023-08-06T16:04:32;15.00;99.90